sensor_id;sensor_type;location;lat;lon;timestamp;P1;durP1;ratioP1;P2;durP2;ratioP2
10863;SDS011;5485;37.558;126.950;2023-05-19T00:00:31;7.40;;;6.80;;
10863;SDS011;5485;37.558;126.950;2023-05-19T00:03:04;7.75;;;7.15;;
10863;SDS011;5485;37.558;126.950;2023-05-19T00:05:33;7.03;;;6.45;;
10863;SDS011;5485;37.558;126.950;2023-05-19T00:08:10;8.13;;;7.20;;
10863;SDS011;5485;37.558;126.950;2023-05-19T00:10:39;8.18;;;7.35;;
10863;SDS011;5485;37.558;126.950;2023-05-19T00:13:06;7.15;;;6.55;;
10863;SDS011;5485;37.558;126.950;2023-05-19T00:15:34;8.20;;;7.32;;
10863;SDS011;5485;37.558;126.950;2023-05-19T00:18:04;7.10;;;6.50;;
10863;SDS011;5485;37.558;126.950;2023-05-19T00:20:33;7.88;;;7.18;;
10863;SDS011;5485;37.558;126.950;2023-05-19T00:23:02;8.55;;;7.38;;
10863;SDS011;5485;37.558;126.950;2023-05-19T00:25:28;7.65;;;7.05;;
10863;SDS011;5485;37.558;126.950;2023-05-19T00:27:55;7.53;;;6.82;;
10863;SDS011;5485;37.558;126.950;2023-05-19T00:30:23;7.65;;;6.97;;
10863;SDS011;5485;37.558;126.950;2023-05-19T00:32:51;6.95;;;6.25;;
10863;SDS011;5485;37.558;126.950;2023-05-19T00:35:18;7.30;;;6.60;;
10863;SDS011;5485;37.558;126.950;2023-05-19T00:37:46;8.30;;;6.57;;
10863;SDS011;5485;37.558;126.950;2023-05-19T00:40:13;7.43;;;6.68;;
10863;SDS011;5485;37.558;126.950;2023-05-19T00:42:40;7.20;;;6.50;;
10863;SDS011;5485;37.558;126.950;2023-05-19T00:45:07;6.43;;;5.75;;
10863;SDS011;5485;37.558;126.950;2023-05-19T00:47:35;7.00;;;5.63;;
10863;SDS011;5485;37.558;126.950;2023-05-19T00:50:02;6.70;;;6.00;;
10863;SDS011;5485;37.558;126.950;2023-05-19T00:52:29;6.10;;;5.50;;
10863;SDS011;5485;37.558;126.950;2023-05-19T00:54:56;7.53;;;5.78;;
10863;SDS011;5485;37.558;126.950;2023-05-19T00:57:25;11.07;;;5.85;;
10863;SDS011;5485;37.558;126.950;2023-05-19T00:59:53;6.93;;;5.32;;
10863;SDS011;5485;37.558;126.950;2023-05-19T01:02:20;5.25;;;4.85;;
10863;SDS011;5485;37.558;126.950;2023-05-19T01:04:48;6.18;;;5.10;;
10863;SDS011;5485;37.558;126.950;2023-05-19T01:07:17;5.25;;;4.78;;
10863;SDS011;5485;37.558;126.950;2023-05-19T01:09:48;11.05;;;5.10;;
10863;SDS011;5485;37.558;126.950;2023-05-19T01:12:15;7.35;;;5.43;;
10863;SDS011;5485;37.558;126.950;2023-05-19T01:14:44;5.57;;;5.07;;
10863;SDS011;5485;37.558;126.950;2023-05-19T01:17:18;5.28;;;4.85;;
10863;SDS011;5485;37.558;126.950;2023-05-19T01:25:36;6.28;;;4.70;;
10863;SDS011;5485;37.558;126.950;2023-05-19T01:31:00;8.00;;;5.40;;
10863;SDS011;5485;37.558;126.950;2023-05-19T01:33:30;4.90;;;4.50;;
10863;SDS011;5485;37.558;126.950;2023-05-19T01:35:58;5.68;;;4.70;;
10863;SDS011;5485;37.558;126.950;2023-05-19T01:38:27;6.50;;;4.93;;
10863;SDS011;5485;37.558;126.950;2023-05-19T01:40:55;5.30;;;4.80;;
10863;SDS011;5485;37.558;126.950;2023-05-19T01:43:28;7.43;;;5.38;;
10863;SDS011;5485;37.558;126.950;2023-05-19T01:45:56;5.00;;;4.43;;
10863;SDS011;5485;37.558;126.950;2023-05-19T01:48:23;6.05;;;5.13;;
10863;SDS011;5485;37.558;126.950;2023-05-19T01:50:51;5.20;;;4.80;;
10863;SDS011;5485;37.558;126.950;2023-05-19T01:53:22;5.00;;;4.50;;
10863;SDS011;5485;37.558;126.950;2023-05-19T01:55:50;5.80;;;5.07;;
10863;SDS011;5485;37.558;126.950;2023-05-19T02:01:10;6.60;;;4.93;;
10863;SDS011;5485;37.558;126.950;2023-05-19T02:10:00;4.63;;;4.22;;
10863;SDS011;5485;37.558;126.950;2023-05-19T02:12:41;5.85;;;4.88;;
10863;SDS011;5485;37.558;126.950;2023-05-19T02:15:14;5.82;;;5.18;;
10863;SDS011;5485;37.558;126.950;2023-05-19T02:17:43;5.50;;;5.00;;
10863;SDS011;5485;37.558;126.950;2023-05-19T02:20:12;5.85;;;5.03;;
10863;SDS011;5485;37.558;126.950;2023-05-19T02:22:46;6.50;;;4.57;;
10863;SDS011;5485;37.558;126.950;2023-05-19T02:25:13;5.72;;;5.05;;
10863;SDS011;5485;37.558;126.950;2023-05-19T02:27:41;6.65;;;5.25;;
10863;SDS011;5485;37.558;126.950;2023-05-19T02:30:08;8.35;;;5.20;;
10863;SDS011;5485;37.558;126.950;2023-05-19T02:32:35;8.77;;;5.35;;
10863;SDS011;5485;37.558;126.950;2023-05-19T02:35:02;5.18;;;4.70;;
10863;SDS011;5485;37.558;126.950;2023-05-19T02:37:30;5.10;;;4.70;;
10863;SDS011;5485;37.558;126.950;2023-05-19T02:39:57;5.10;;;4.65;;
10863;SDS011;5485;37.558;126.950;2023-05-19T02:42:24;5.82;;;5.05;;
10863;SDS011;5485;37.558;126.950;2023-05-19T02:44:51;6.05;;;4.93;;
10863;SDS011;5485;37.558;126.950;2023-05-19T02:47:19;6.72;;;5.13;;
10863;SDS011;5485;37.558;126.950;2023-05-19T02:49:46;5.30;;;4.80;;
10863;SDS011;5485;37.558;126.950;2023-05-19T02:52:13;5.45;;;4.47;;
10863;SDS011;5485;37.558;126.950;2023-05-19T02:54:40;6.72;;;4.78;;
10863;SDS011;5485;37.558;126.950;2023-05-19T02:57:07;4.95;;;4.55;;
10863;SDS011;5485;37.558;126.950;2023-05-19T02:59:34;6.32;;;5.35;;
10863;SDS011;5485;37.558;126.950;2023-05-19T03:02:01;4.60;;;4.25;;
10863;SDS011;5485;37.558;126.950;2023-05-19T03:04:28;5.78;;;5.28;;
10863;SDS011;5485;37.558;126.950;2023-05-19T03:06:55;6.10;;;5.50;;
10863;SDS011;5485;37.558;126.950;2023-05-19T03:09:22;5.70;;;5.20;;
10863;SDS011;5485;37.558;126.950;2023-05-19T03:11:49;5.93;;;5.32;;
10863;SDS011;5485;37.558;126.950;2023-05-19T03:14:16;6.50;;;5.80;;
10863;SDS011;5485;37.558;126.950;2023-05-19T03:16:48;5.80;;;5.30;;
10863;SDS011;5485;37.558;126.950;2023-05-19T03:19:14;6.03;;;5.53;;
10863;SDS011;5485;37.558;126.950;2023-05-19T03:21:42;9.63;;;6.10;;
10863;SDS011;5485;37.558;126.950;2023-05-19T03:24:09;7.72;;;5.57;;
10863;SDS011;5485;37.558;126.950;2023-05-19T03:26:36;6.47;;;5.88;;
10863;SDS011;5485;37.558;126.950;2023-05-19T03:29:03;6.38;;;5.78;;
10863;SDS011;5485;37.558;126.950;2023-05-19T03:31:30;6.25;;;5.60;;
10863;SDS011;5485;37.558;126.950;2023-05-19T03:33:57;6.13;;;5.63;;
10863;SDS011;5485;37.558;126.950;2023-05-19T03:36:24;6.82;;;5.85;;
10863;SDS011;5485;37.558;126.950;2023-05-19T03:38:56;5.40;;;4.97;;
10863;SDS011;5485;37.558;126.950;2023-05-19T03:41:24;6.40;;;5.78;;
10863;SDS011;5485;37.558;126.950;2023-05-19T03:43:51;5.65;;;5.25;;
10863;SDS011;5485;37.558;126.950;2023-05-19T03:46:18;6.75;;;5.93;;
10863;SDS011;5485;37.558;126.950;2023-05-19T03:48:45;7.25;;;5.28;;
10863;SDS011;5485;37.558;126.950;2023-05-19T03:51:14;5.65;;;5.25;;
10863;SDS011;5485;37.558;126.950;2023-05-19T03:53:41;6.20;;;5.55;;
10863;SDS011;5485;37.558;126.950;2023-05-19T03:56:09;6.00;;;5.50;;
10863;SDS011;5485;37.558;126.950;2023-05-19T03:58:38;5.20;;;4.70;;
10863;SDS011;5485;37.558;126.950;2023-05-19T04:01:09;8.88;;;5.50;;
10863;SDS011;5485;37.558;126.950;2023-05-19T04:03:36;8.80;;;5.45;;
10863;SDS011;5485;37.558;126.950;2023-05-19T04:06:04;5.22;;;4.75;;
10863;SDS011;5485;37.558;126.950;2023-05-19T04:08:31;5.53;;;5.00;;
10863;SDS011;5485;37.558;126.950;2023-05-19T04:10:58;5.95;;;5.45;;
10863;SDS011;5485;37.558;126.950;2023-05-19T04:13:25;5.78;;;5.28;;
10863;SDS011;5485;37.558;126.950;2023-05-19T04:15:52;5.43;;;5.00;;
10863;SDS011;5485;37.558;126.950;2023-05-19T04:18:18;5.82;;;5.10;;
10863;SDS011;5485;37.558;126.950;2023-05-19T04:20:45;6.80;;;4.97;;
10863;SDS011;5485;37.558;126.950;2023-05-19T04:23:13;5.22;;;4.72;;
10863;SDS011;5485;37.558;126.950;2023-05-19T04:25:40;5.72;;;5.22;;
10863;SDS011;5485;37.558;126.950;2023-05-19T04:28:07;5.97;;;5.22;;
10863;SDS011;5485;37.558;126.950;2023-05-19T04:30:34;6.65;;;5.20;;
10863;SDS011;5485;37.558;126.950;2023-05-19T04:33:02;5.10;;;4.60;;
10863;SDS011;5485;37.558;126.950;2023-05-19T04:35:37;6.10;;;5.15;;
10863;SDS011;5485;37.558;126.950;2023-05-19T04:38:04;4.68;;;4.32;;
10863;SDS011;5485;37.558;126.950;2023-05-19T04:40:31;5.45;;;4.90;;
10863;SDS011;5485;37.558;126.950;2023-05-19T04:42:58;5.10;;;4.72;;
10863;SDS011;5485;37.558;126.950;2023-05-19T04:45:26;5.70;;;5.20;;
10863;SDS011;5485;37.558;126.950;2023-05-19T04:47:53;8.10;;;6.22;;
10863;SDS011;5485;37.558;126.950;2023-05-19T04:50:22;6.95;;;6.25;;
10863;SDS011;5485;37.558;126.950;2023-05-19T04:52:49;6.35;;;5.35;;
10863;SDS011;5485;37.558;126.950;2023-05-19T04:55:16;5.40;;;4.93;;
10863;SDS011;5485;37.558;126.950;2023-05-19T04:57:43;5.95;;;5.45;;
10863;SDS011;5485;37.558;126.950;2023-05-19T05:00:11;6.78;;;5.53;;
10863;SDS011;5485;37.558;126.950;2023-05-19T05:02:38;6.50;;;5.55;;
10863;SDS011;5485;37.558;126.950;2023-05-19T05:05:07;7.15;;;5.53;;
10863;SDS011;5485;37.558;126.950;2023-05-19T05:07:34;7.55;;;5.20;;
10863;SDS011;5485;37.558;126.950;2023-05-19T05:10:01;5.90;;;5.22;;
10863;SDS011;5485;37.558;126.950;2023-05-19T05:12:28;6.07;;;5.13;;
10863;SDS011;5485;37.558;126.950;2023-05-19T05:14:55;5.97;;;5.47;;
10863;SDS011;5485;37.558;126.950;2023-05-19T05:17:23;6.78;;;6.10;;
10863;SDS011;5485;37.558;126.950;2023-05-19T05:19:51;5.88;;;5.38;;
10863;SDS011;5485;37.558;126.950;2023-05-19T05:22:18;7.40;;;4.97;;
10863;SDS011;5485;37.558;126.950;2023-05-19T05:24:46;7.05;;;5.63;;
10863;SDS011;5485;37.558;126.950;2023-05-19T05:27:13;6.60;;;5.95;;
10863;SDS011;5485;37.558;126.950;2023-05-19T05:29:40;7.07;;;5.30;;
10863;SDS011;5485;37.558;126.950;2023-05-19T05:32:07;7.93;;;4.78;;
10863;SDS011;5485;37.558;126.950;2023-05-19T05:34:34;6.32;;;5.28;;
10863;SDS011;5485;37.558;126.950;2023-05-19T05:37:04;6.30;;;4.88;;
10863;SDS011;5485;37.558;126.950;2023-05-19T05:39:31;6.22;;;5.63;;
10863;SDS011;5485;37.558;126.950;2023-05-19T05:41:58;5.93;;;5.35;;
10863;SDS011;5485;37.558;126.950;2023-05-19T05:44:25;7.32;;;5.05;;
10863;SDS011;5485;37.558;126.950;2023-05-19T05:46:52;6.95;;;5.70;;
10863;SDS011;5485;37.558;126.950;2023-05-19T05:49:19;6.10;;;5.28;;
10863;SDS011;5485;37.558;126.950;2023-05-19T05:51:46;10.60;;;7.90;;
10863;SDS011;5485;37.558;126.950;2023-05-19T05:54:13;7.25;;;6.35;;
10863;SDS011;5485;37.558;126.950;2023-05-19T05:56:42;5.75;;;5.22;;
10863;SDS011;5485;37.558;126.950;2023-05-19T05:59:09;7.15;;;5.88;;
10863;SDS011;5485;37.558;126.950;2023-05-19T06:01:36;6.07;;;5.25;;
10863;SDS011;5485;37.558;126.950;2023-05-19T06:04:03;6.53;;;5.70;;
10863;SDS011;5485;37.558;126.950;2023-05-19T06:06:30;6.50;;;5.35;;
10863;SDS011;5485;37.558;126.950;2023-05-19T06:08:57;6.43;;;5.55;;
10863;SDS011;5485;37.558;126.950;2023-05-19T06:11:24;8.48;;;6.03;;
10863;SDS011;5485;37.558;126.950;2023-05-19T06:13:51;13.93;;;9.25;;
10863;SDS011;5485;37.558;126.950;2023-05-19T06:16:17;6.38;;;5.78;;
10863;SDS011;5485;37.558;126.950;2023-05-19T06:18:44;6.55;;;5.63;;
10863;SDS011;5485;37.558;126.950;2023-05-19T06:21:11;7.13;;;5.88;;
10863;SDS011;5485;37.558;126.950;2023-05-19T06:23:39;6.57;;;5.60;;
10863;SDS011;5485;37.558;126.950;2023-05-19T06:26:06;5.57;;;5.03;;
10863;SDS011;5485;37.558;126.950;2023-05-19T06:28:33;5.40;;;5.00;;
10863;SDS011;5485;37.558;126.950;2023-05-19T06:30:59;5.70;;;5.20;;
10863;SDS011;5485;37.558;126.950;2023-05-19T06:33:26;7.35;;;6.20;;
10863;SDS011;5485;37.558;126.950;2023-05-19T06:35:53;5.97;;;5.47;;
10863;SDS011;5485;37.558;126.950;2023-05-19T06:38:20;5.68;;;5.15;;
10863;SDS011;5485;37.558;126.950;2023-05-19T06:40:47;6.25;;;5.65;;
10863;SDS011;5485;37.558;126.950;2023-05-19T06:43:14;7.13;;;6.28;;
10863;SDS011;5485;37.558;126.950;2023-05-19T06:45:42;6.15;;;5.55;;
10863;SDS011;5485;37.558;126.950;2023-05-19T06:48:09;5.75;;;5.30;;
10863;SDS011;5485;37.558;126.950;2023-05-19T06:50:36;6.82;;;5.15;;
10863;SDS011;5485;37.558;126.950;2023-05-19T06:53:02;6.65;;;5.38;;
10863;SDS011;5485;37.558;126.950;2023-05-19T06:55:30;5.65;;;5.03;;
10863;SDS011;5485;37.558;126.950;2023-05-19T06:57:57;5.70;;;5.30;;
10863;SDS011;5485;37.558;126.950;2023-05-19T07:00:24;6.25;;;5.57;;
10863;SDS011;5485;37.558;126.950;2023-05-19T07:02:52;8.43;;;6.05;;
10863;SDS011;5485;37.558;126.950;2023-05-19T07:05:19;6.50;;;5.90;;
10863;SDS011;5485;37.558;126.950;2023-05-19T07:07:46;6.13;;;5.53;;
10863;SDS011;5485;37.558;126.950;2023-05-19T07:10:13;7.13;;;5.38;;
10863;SDS011;5485;37.558;126.950;2023-05-19T07:12:40;7.32;;;5.70;;
10863;SDS011;5485;37.558;126.950;2023-05-19T07:15:07;6.70;;;5.65;;
10863;SDS011;5485;37.558;126.950;2023-05-19T07:17:34;6.28;;;5.72;;
10863;SDS011;5485;37.558;126.950;2023-05-19T07:20:01;8.68;;;6.38;;
10863;SDS011;5485;37.558;126.950;2023-05-19T07:22:31;6.60;;;5.95;;
10863;SDS011;5485;37.558;126.950;2023-05-19T07:24:59;6.13;;;5.53;;
10863;SDS011;5485;37.558;126.950;2023-05-19T07:27:26;8.88;;;5.40;;
10863;SDS011;5485;37.558;126.950;2023-05-19T07:29:53;10.23;;;7.47;;
10863;SDS011;5485;37.558;126.950;2023-05-19T07:32:20;7.38;;;5.50;;
10863;SDS011;5485;37.558;126.950;2023-05-19T07:34:47;6.28;;;5.68;;
10863;SDS011;5485;37.558;126.950;2023-05-19T07:37:14;6.72;;;5.70;;
10863;SDS011;5485;37.558;126.950;2023-05-19T07:39:41;6.07;;;5.47;;
10863;SDS011;5485;37.558;126.950;2023-05-19T07:42:08;5.35;;;4.95;;
10863;SDS011;5485;37.558;126.950;2023-05-19T07:44:35;5.60;;;4.97;;
10863;SDS011;5485;37.558;126.950;2023-05-19T07:47:02;5.50;;;4.97;;
10863;SDS011;5485;37.558;126.950;2023-05-19T07:49:29;7.15;;;4.95;;
10863;SDS011;5485;37.558;126.950;2023-05-19T07:51:59;5.43;;;4.90;;
10863;SDS011;5485;37.558;126.950;2023-05-19T07:54:26;5.78;;;5.00;;
10863;SDS011;5485;37.558;126.950;2023-05-19T07:56:53;6.00;;;5.38;;
10863;SDS011;5485;37.558;126.950;2023-05-19T07:59:20;11.60;;;6.57;;
10863;SDS011;5485;37.558;126.950;2023-05-19T08:01:47;5.60;;;5.10;;
10863;SDS011;5485;37.558;126.950;2023-05-19T08:04:14;5.63;;;5.03;;
10863;SDS011;5485;37.558;126.950;2023-05-19T08:06:41;7.15;;;5.20;;
10863;SDS011;5485;37.558;126.950;2023-05-19T08:09:09;9.30;;;5.70;;
10863;SDS011;5485;37.558;126.950;2023-05-19T08:11:36;6.20;;;5.60;;
10863;SDS011;5485;37.558;126.950;2023-05-19T08:14:03;10.05;;;6.35;;
10863;SDS011;5485;37.558;126.950;2023-05-19T08:16:36;13.52;;;8.25;;
10863;SDS011;5485;37.558;126.950;2023-05-19T08:19:06;9.50;;;6.10;;
10863;SDS011;5485;37.558;126.950;2023-05-19T08:21:33;6.05;;;5.13;;
10863;SDS011;5485;37.558;126.950;2023-05-19T08:24:01;5.65;;;5.15;;
10863;SDS011;5485;37.558;126.950;2023-05-19T08:26:28;5.95;;;5.35;;
10863;SDS011;5485;37.558;126.950;2023-05-19T08:28:55;5.78;;;5.00;;
10863;SDS011;5485;37.558;126.950;2023-05-19T08:31:24;6.18;;;5.30;;
10863;SDS011;5485;37.558;126.950;2023-05-19T08:33:50;5.65;;;5.15;;
10863;SDS011;5485;37.558;126.950;2023-05-19T08:36:17;5.85;;;5.22;;
10863;SDS011;5485;37.558;126.950;2023-05-19T08:42:50;7.18;;;5.82;;
10863;SDS011;5485;37.558;126.950;2023-05-19T08:45:19;6.30;;;5.78;;
10863;SDS011;5485;37.558;126.950;2023-05-19T08:47:46;6.10;;;5.53;;
10863;SDS011;5485;37.558;126.950;2023-05-19T08:50:22;5.75;;;5.18;;
10863;SDS011;5485;37.558;126.950;2023-05-19T08:52:56;5.65;;;5.25;;
10863;SDS011;5485;37.558;126.950;2023-05-19T08:55:31;5.95;;;5.47;;
10863;SDS011;5485;37.558;126.950;2023-05-19T08:58:08;5.95;;;5.47;;
10863;SDS011;5485;37.558;126.950;2023-05-19T09:00:37;6.10;;;5.60;;
10863;SDS011;5485;37.558;126.950;2023-05-19T09:03:04;7.07;;;5.53;;
10863;SDS011;5485;37.558;126.950;2023-05-19T09:05:32;6.30;;;5.78;;
10863;SDS011;5485;37.558;126.950;2023-05-19T09:08:02;5.95;;;5.03;;
10863;SDS011;5485;37.558;126.950;2023-05-19T09:10:30;5.78;;;4.97;;
10863;SDS011;5485;37.558;126.950;2023-05-19T09:12:57;6.15;;;5.20;;
10863;SDS011;5485;37.558;126.950;2023-05-19T09:15:27;5.97;;;5.50;;
10863;SDS011;5485;37.558;126.950;2023-05-19T09:20:42;7.80;;;4.93;;
10863;SDS011;5485;37.558;126.950;2023-05-19T09:23:13;6.53;;;5.32;;
10863;SDS011;5485;37.558;126.950;2023-05-19T09:25:51;8.27;;;4.88;;
10863;SDS011;5485;37.558;126.950;2023-05-19T09:28:23;5.68;;;5.22;;
10863;SDS011;5485;37.558;126.950;2023-05-19T09:31:09;5.72;;;5.00;;
10863;SDS011;5485;37.558;126.950;2023-05-19T09:33:39;6.05;;;5.38;;
10863;SDS011;5485;37.558;126.950;2023-05-19T09:36:08;5.68;;;5.20;;
10863;SDS011;5485;37.558;126.950;2023-05-19T09:38:36;6.65;;;5.70;;
10863;SDS011;5485;37.558;126.950;2023-05-19T09:41:04;6.90;;;5.53;;
10863;SDS011;5485;37.558;126.950;2023-05-19T09:43:36;6.18;;;5.68;;
10863;SDS011;5485;37.558;126.950;2023-05-19T09:46:07;6.07;;;5.57;;
10863;SDS011;5485;37.558;126.950;2023-05-19T09:48:37;7.15;;;6.30;;
10863;SDS011;5485;37.558;126.950;2023-05-19T09:51:06;6.82;;;6.28;;
10863;SDS011;5485;37.558;126.950;2023-05-19T09:53:36;8.85;;;8.02;;
10863;SDS011;5485;37.558;126.950;2023-05-19T09:56:03;12.45;;;8.73;;
10863;SDS011;5485;37.558;126.950;2023-05-19T09:58:32;11.02;;;8.88;;
10863;SDS011;5485;37.558;126.950;2023-05-19T10:01:02;9.18;;;8.27;;
10863;SDS011;5485;37.558;126.950;2023-05-19T10:03:29;12.82;;;9.77;;
10863;SDS011;5485;37.558;126.950;2023-05-19T10:05:58;11.75;;;10.68;;
10863;SDS011;5485;37.558;126.950;2023-05-19T10:08:27;9.98;;;8.98;;
10863;SDS011;5485;37.558;126.950;2023-05-19T10:10:56;10.13;;;9.10;;
10863;SDS011;5485;37.558;126.950;2023-05-19T10:13:24;13.25;;;10.40;;
10863;SDS011;5485;37.558;126.950;2023-05-19T10:15:51;10.05;;;9.05;;
10863;SDS011;5485;37.558;126.950;2023-05-19T10:18:20;12.45;;;9.52;;
10863;SDS011;5485;37.558;126.950;2023-05-19T10:20:50;10.95;;;9.73;;
10863;SDS011;5485;37.558;126.950;2023-05-19T10:23:22;10.20;;;9.10;;
10863;SDS011;5485;37.558;126.950;2023-05-19T10:25:50;11.80;;;9.50;;
10863;SDS011;5485;37.558;126.950;2023-05-19T10:28:20;14.45;;;9.65;;
10863;SDS011;5485;37.558;126.950;2023-05-19T10:30:52;14.25;;;10.02;;
10863;SDS011;5485;37.558;126.950;2023-05-19T10:33:27;11.10;;;10.10;;
10863;SDS011;5485;37.558;126.950;2023-05-19T10:36:11;17.52;;;10.13;;
10863;SDS011;5485;37.558;126.950;2023-05-19T10:39:15;11.27;;;9.50;;
10863;SDS011;5485;37.558;126.950;2023-05-19T10:42:17;12.77;;;11.48;;
10863;SDS011;5485;37.558;126.950;2023-05-19T10:47:44;11.27;;;10.25;;
10863;SDS011;5485;37.558;126.950;2023-05-19T10:50:12;11.90;;;10.73;;
10863;SDS011;5485;37.558;126.950;2023-05-19T10:52:39;13.70;;;9.90;;
10863;SDS011;5485;37.558;126.950;2023-05-19T10:55:12;11.93;;;9.52;;
10863;SDS011;5485;37.558;126.950;2023-05-19T10:57:54;12.35;;;10.50;;
10863;SDS011;5485;37.558;126.950;2023-05-19T11:00:28;15.98;;;9.98;;
10863;SDS011;5485;37.558;126.950;2023-05-19T11:03:13;12.90;;;9.95;;
10863;SDS011;5485;37.558;126.950;2023-05-19T11:05:42;13.50;;;10.25;;
10863;SDS011;5485;37.558;126.950;2023-05-19T11:08:11;15.30;;;10.15;;
10863;SDS011;5485;37.558;126.950;2023-05-19T11:10:38;13.10;;;11.05;;
10863;SDS011;5485;37.558;126.950;2023-05-19T11:13:17;17.73;;;10.50;;
10863;SDS011;5485;37.558;126.950;2023-05-19T11:15:47;13.10;;;10.90;;
10863;SDS011;5485;37.558;126.950;2023-05-19T11:18:15;12.27;;;9.23;;
10863;SDS011;5485;37.558;126.950;2023-05-19T11:20:44;10.57;;;8.77;;
10863;SDS011;5485;37.558;126.950;2023-05-19T11:23:26;9.95;;;8.32;;
10863;SDS011;5485;37.558;126.950;2023-05-19T11:25:57;9.90;;;8.52;;
10863;SDS011;5485;37.558;126.950;2023-05-19T11:28:27;11.35;;;8.95;;
10863;SDS011;5485;37.558;126.950;2023-05-19T11:30:55;10.25;;;9.15;;
10863;SDS011;5485;37.558;126.950;2023-05-19T11:33:24;9.30;;;7.80;;
10863;SDS011;5485;37.558;126.950;2023-05-19T11:35:52;11.68;;;8.05;;
10863;SDS011;5485;37.558;126.950;2023-05-19T11:38:23;13.40;;;8.77;;
10863;SDS011;5485;37.558;126.950;2023-05-19T11:40:54;12.82;;;7.72;;
10863;SDS011;5485;37.558;126.950;2023-05-19T11:43:26;10.05;;;8.50;;
10863;SDS011;5485;37.558;126.950;2023-05-19T11:45:53;10.68;;;8.32;;
10863;SDS011;5485;37.558;126.950;2023-05-19T11:48:20;8.85;;;7.68;;
10863;SDS011;5485;37.558;126.950;2023-05-19T11:50:48;8.02;;;7.32;;
10863;SDS011;5485;37.558;126.950;2023-05-19T11:53:16;10.05;;;7.53;;
10863;SDS011;5485;37.558;126.950;2023-05-19T11:55:44;9.38;;;7.30;;
10863;SDS011;5485;37.558;126.950;2023-05-19T11:58:12;11.73;;;7.95;;
10863;SDS011;5485;37.558;126.950;2023-05-19T12:00:40;12.23;;;7.82;;
10863;SDS011;5485;37.558;126.950;2023-05-19T12:03:10;11.85;;;7.50;;
10863;SDS011;5485;37.558;126.950;2023-05-19T12:05:39;9.60;;;7.47;;
10863;SDS011;5485;37.558;126.950;2023-05-19T12:08:10;8.27;;;7.47;;
10863;SDS011;5485;37.558;126.950;2023-05-19T12:10:38;12.27;;;7.68;;
10863;SDS011;5485;37.558;126.950;2023-05-19T12:13:05;9.25;;;8.27;;
10863;SDS011;5485;37.558;126.950;2023-05-19T12:15:33;10.32;;;7.45;;
10863;SDS011;5485;37.558;126.950;2023-05-19T12:18:01;7.95;;;7.20;;
10863;SDS011;5485;37.558;126.950;2023-05-19T12:20:28;8.13;;;7.32;;
10863;SDS011;5485;37.558;126.950;2023-05-19T12:23:02;9.02;;;7.32;;
10863;SDS011;5485;37.558;126.950;2023-05-19T12:25:29;9.40;;;7.07;;
10863;SDS011;5485;37.558;126.950;2023-05-19T12:27:57;10.90;;;7.68;;
10863;SDS011;5485;37.558;126.950;2023-05-19T12:30:30;7.90;;;7.10;;
10863;SDS011;5485;37.558;126.950;2023-05-19T12:32:58;8.57;;;7.72;;
10863;SDS011;5485;37.558;126.950;2023-05-19T12:35:29;8.45;;;7.65;;
10863;SDS011;5485;37.558;126.950;2023-05-19T12:38:03;8.75;;;6.82;;
10863;SDS011;5485;37.558;126.950;2023-05-19T12:40:34;8.05;;;7.10;;
10863;SDS011;5485;37.558;126.950;2023-05-19T12:43:06;10.05;;;7.50;;
10863;SDS011;5485;37.558;126.950;2023-05-19T12:45:34;8.13;;;7.32;;
10863;SDS011;5485;37.558;126.950;2023-05-19T12:48:09;9.82;;;7.63;;
10863;SDS011;5485;37.558;126.950;2023-05-19T12:50:40;7.93;;;7.13;;
10863;SDS011;5485;37.558;126.950;2023-05-19T12:53:08;10.13;;;7.95;;
10863;SDS011;5485;37.558;126.950;2023-05-19T12:55:38;11.38;;;8.68;;
10863;SDS011;5485;37.558;126.950;2023-05-19T12:58:09;8.68;;;7.75;;
10863;SDS011;5485;37.558;126.950;2023-05-19T13:00:40;8.45;;;7.65;;
10863;SDS011;5485;37.558;126.950;2023-05-19T13:03:15;11.65;;;8.95;;
10863;SDS011;5485;37.558;126.950;2023-05-19T13:05:45;8.65;;;7.85;;
10863;SDS011;5485;37.558;126.950;2023-05-19T13:08:14;9.35;;;8.13;;
10863;SDS011;5485;37.558;126.950;2023-05-19T13:10:42;11.00;;;8.13;;
10863;SDS011;5485;37.558;126.950;2023-05-19T13:13:11;10.68;;;7.78;;
10863;SDS011;5485;37.558;126.950;2023-05-19T13:15:42;8.82;;;7.93;;
10863;SDS011;5485;37.558;126.950;2023-05-19T13:18:10;11.13;;;8.95;;
10863;SDS011;5485;37.558;126.950;2023-05-19T13:20:41;11.02;;;8.93;;
10863;SDS011;5485;37.558;126.950;2023-05-19T13:23:09;14.30;;;10.05;;
10863;SDS011;5485;37.558;126.950;2023-05-19T13:25:48;17.67;;;11.30;;
10863;SDS011;5485;37.558;126.950;2023-05-19T13:28:15;14.88;;;9.93;;
10863;SDS011;5485;37.558;126.950;2023-05-19T13:30:43;12.48;;;9.30;;
10863;SDS011;5485;37.558;126.950;2023-05-19T13:33:10;14.82;;;8.95;;
10863;SDS011;5485;37.558;126.950;2023-05-19T13:35:37;11.63;;;9.55;;
10863;SDS011;5485;37.558;126.950;2023-05-19T13:38:07;10.25;;;9.02;;
10863;SDS011;5485;37.558;126.950;2023-05-19T13:40:35;10.98;;;9.77;;
10863;SDS011;5485;37.558;126.950;2023-05-19T13:43:02;12.48;;;10.27;;
10863;SDS011;5485;37.558;126.950;2023-05-19T13:45:30;20.58;;;12.60;;
10863;SDS011;5485;37.558;126.950;2023-05-19T13:47:57;17.88;;;10.52;;
10863;SDS011;5485;37.558;126.950;2023-05-19T13:50:30;14.68;;;11.73;;
10863;SDS011;5485;37.558;126.950;2023-05-19T13:52:58;25.00;;;16.15;;
10863;SDS011;5485;37.558;126.950;2023-05-19T13:55:35;22.55;;;13.88;;
10863;SDS011;5485;37.558;126.950;2023-05-19T13:58:08;21.50;;;14.82;;
10863;SDS011;5485;37.558;126.950;2023-05-19T14:00:41;20.65;;;14.00;;
10863;SDS011;5485;37.558;126.950;2023-05-19T14:03:08;21.52;;;13.30;;
10863;SDS011;5485;37.558;126.950;2023-05-19T14:05:40;21.98;;;13.95;;
10863;SDS011;5485;37.558;126.950;2023-05-19T14:08:07;20.92;;;13.77;;
10863;SDS011;5485;37.558;126.950;2023-05-19T14:10:35;19.95;;;12.93;;
10863;SDS011;5485;37.558;126.950;2023-05-19T14:13:06;18.33;;;11.90;;
10863;SDS011;5485;37.558;126.950;2023-05-19T14:15:35;15.65;;;10.73;;
10863;SDS011;5485;37.558;126.950;2023-05-19T14:18:02;8.63;;;7.75;;
10863;SDS011;5485;37.558;126.950;2023-05-19T14:20:30;11.18;;;9.43;;
10863;SDS011;5485;37.558;126.950;2023-05-19T14:22:57;8.68;;;7.80;;
10863;SDS011;5485;37.558;126.950;2023-05-19T14:25:24;8.50;;;7.57;;
10863;SDS011;5485;37.558;126.950;2023-05-19T14:27:51;11.45;;;7.82;;
10863;SDS011;5485;37.558;126.950;2023-05-19T14:30:22;8.13;;;7.43;;
10863;SDS011;5485;37.558;126.950;2023-05-19T14:32:49;9.35;;;7.20;;
10863;SDS011;5485;37.558;126.950;2023-05-19T14:35:19;10.15;;;8.45;;
10863;SDS011;5485;37.558;126.950;2023-05-19T14:37:47;7.68;;;6.97;;
10863;SDS011;5485;37.558;126.950;2023-05-19T14:40:17;8.27;;;7.22;;
10863;SDS011;5485;37.558;126.950;2023-05-19T14:42:47;8.02;;;6.93;;
10863;SDS011;5485;37.558;126.950;2023-05-19T14:45:16;8.45;;;7.70;;
10863;SDS011;5485;37.558;126.950;2023-05-19T14:47:43;8.90;;;7.88;;
10863;SDS011;5485;37.558;126.950;2023-05-19T14:50:10;8.23;;;7.43;;
10863;SDS011;5485;37.558;126.950;2023-05-19T14:52:38;8.85;;;8.07;;
10863;SDS011;5485;37.558;126.950;2023-05-19T14:55:05;11.20;;;7.53;;
10863;SDS011;5485;37.558;126.950;2023-05-19T14:57:32;9.10;;;7.55;;
10863;SDS011;5485;37.558;126.950;2023-05-19T14:59:59;7.80;;;7.03;;
10863;SDS011;5485;37.558;126.950;2023-05-19T15:02:26;10.32;;;7.82;;
10863;SDS011;5485;37.558;126.950;2023-05-19T15:04:53;7.50;;;6.80;;
10863;SDS011;5485;37.558;126.950;2023-05-19T15:07:20;7.78;;;7.07;;